Kurunegala, Sri Lanka

2:07 PM +0530 on December 06, 2016 (GMT +0530)
TROPIFLORA SRI LANKA LENA | | Change Station

Elev 512 ft 7.56 °N, 80.51 °E | Updated 12 minutes ago

Partly Cloudy
Partly Cloudy
90.8 °F
Feels Like 96 °F
N
0.0
Wind Variable Wind from ENE
Gusts 2.0 mph

Today
High -- | Low -- °F
--% Chance of Precip.
Yesterday
High -- | Low -- °F
Precip. -- in
Pressure 29.80 in
Visibility 6.2 miles
Clouds Few 1800 ft
Heat Index 96 °F
Dew Point 70 °F
Humidity 50%
Rainfall 0.00 in
Snow Depth Not available.
6:08 AM 5:50 PM
Waxing Crescent, 39% visible
METAR VCBI 060810Z 03013KT 9999 FEW018 32/19 Q1009 NOSIG
Pressure 29.80 in
Visibility 6.2 miles
Clouds Few 1800 ft
Heat Index 96 °F
Dew Point 70 °F
Humidity 50%
Rainfall 0.00 in
Snow Depth Not available.
6:08 AM 5:50 PM
Waxing Crescent, 39% visible
METAR VCBI 060810Z 03013KT 9999 FEW018 32/19 Q1009 NOSIG

10-Day Weather Forecast

No radar image for this location.
×

Almanac

Astronomy

Dec. 06, 2016 Rise Set
Actual Time
Civil Twilight
Nautical Twilight
Astronomical Twilight
Moon
Length of Visible Light
Length of Day
Tomorrow will be .
, % of the Moon is Illuminated

Today's Extremes

Country Highs Country Lows

Community

WunderPhotos

Upload Photos

1,955,935 photos uploaded!

WunderBlog® & News

Nearby

Air Quality

  Air Quality AQ Index Pollutant
Not available.

Snow Depth

Station Depth Elevation

Earthquake Activity

City Distance Mag. Time & Date
Minimum magnitude displayed is 2.5.

Coastal Water Temperatures

Place Temperature

Stations

Nearby Weather Stations

Station Location Temp. Windchill Dew Point Humidity Wind Precip. Elev Updated Type